Time;durP1;ratioP1;P1;durP2;ratioP2;P2;SDS_P1;SDS_P2;PMS_P1;PMS_P2;Temp;Humidity;BMP_temperature;BMP_pressure;BME280_temperature;BME280_humidity;BME280_pressure;Samples;Min_cycle;Max_cycle;Signal;HPM_P1;HPM_P2
2024/03/24 00:00:04;;;;;;;7.18;4.35;;;;;;;4.30;76.58;97748.41;4988064;28;20053;-82
2024/03/24 00:02:29;;;;;;;8.98;4.45;;;;;;;4.31;75.87;97733.38;4974900;28;20033;-81
2024/03/24 00:04:55;;;;;;;5.43;4.90;;;;;;;4.38;76.75;97756.00;4989474;28;20044;-81
2024/03/24 00:07:20;;;;;;;9.88;4.32;;;;;;;4.34;75.64;97744.28;4970928;28;20045;-81
2024/03/24 00:09:45;;;;;;;6.80;3.78;;;;;;;4.31;76.80;97744.75;4979555;28;20040;-82
2024/03/24 00:12:11;;;;;;;7.97;4.15;;;;;;;4.17;77.04;97742.63;5011651;28;20124;-83
2024/03/24 00:14:37;;;;;;;10.77;4.43;;;;;;;4.16;77.24;97747.09;5016046;28;20432;-83
2024/03/24 00:17:02;;;;;;;9.57;4.15;;;;;;;4.32;76.50;97750.84;5018620;28;20414;-82
2024/03/24 00:19:28;;;;;;;5.78;4.13;;;;;;;4.20;76.84;97727.09;5001844;28;20413;-81
2024/03/24 00:21:54;;;;;;;6.47;3.90;;;;;;;4.31;77.24;97742.13;4972186;28;20049;-83
2024/03/24 00:24:20;;;;;;;7.95;3.70;;;;;;;4.26;77.23;97741.22;5005047;28;20045;-81
2024/03/24 00:26:45;;;;;;;6.70;4.57;;;;;;;4.12;77.30;97727.50;4982599;28;20026;-81
2024/03/24 00:29:10;;;;;;;7.07;5.18;;;;;;;4.25;77.15;97721.94;4999836;28;20038;-82
2024/03/24 00:31:36;;;;;;;6.57;4.38;;;;;;;4.38;76.60;97728.75;4981875;28;20034;-82
2024/03/24 00:34:01;;;;;;;9.38;4.47;;;;;;;4.29;76.71;97723.06;4980773;28;20042;-81
2024/03/24 00:36:26;;;;;;;6.22;4.90;;;;;;;4.14;77.31;97719.31;4986479;28;20038;-80
2024/03/24 00:38:52;;;;;;;9.18;4.35;;;;;;;4.34;76.82;97714.44;4983651;28;20116;-82
2024/03/24 00:41:17;;;;;;;5.70;4.50;;;;;;;3.87;78.19;97697.94;4998869;28;20026;-82
2024/03/24 00:43:42;;;;;;;10.35;4.55;;;;;;;4.31;76.66;97699.03;4967404;28;20025;-82
2024/03/24 00:46:08;;;;;;;7.60;4.70;;;;;;;4.09;77.23;97682.25;5016269;28;20021;-82
2024/03/24 00:48:33;;;;;;;5.25;4.38;;;;;;;4.40;76.39;97684.41;4986665;28;20457;-81
2024/03/24 00:50:59;;;;;;;8.00;4.97;;;;;;;4.24;76.54;97671.97;5026696;28;20068;-82
2024/03/24 00:53:24;;;;;;;5.05;4.57;;;;;;;4.12;76.63;97674.69;5001065;28;20037;-82
2024/03/24 00:55:50;;;;;;;5.55;4.45;;;;;;;4.27;77.21;97677.59;4968042;28;20038;-82
2024/03/24 00:58:15;;;;;;;7.22;4.60;;;;;;;4.14;76.99;97685.00;4996480;28;20030;-82
2024/03/24 01:00:40;;;;;;;8.57;4.35;;;;;;;4.15;77.14;97658.34;5004106;28;20041;-82
2024/03/24 01:03:06;;;;;;;4.45;3.63;;;;;;;4.20;77.14;97662.94;4999319;28;20045;-82
2024/03/24 01:05:31;;;;;;;6.85;4.35;;;;;;;4.05;77.43;97652.91;4996982;28;20482;-81
2024/03/24 01:07:57;;;;;;;5.97;3.90;;;;;;;4.03;77.95;97659.44;4995270;28;20116;-82
2024/03/24 01:10:22;;;;;;;4.28;3.80;;;;;;;4.25;77.36;97679.69;5008049;28;20057;-81
2024/03/24 01:12:49;;;;;;;6.88;4.30;;;;;;;4.19;77.67;97667.44;4986298;28;20029;-82
2024/03/24 01:15:16;;;;;;;6.75;4.45;;;;;;;4.19;77.48;97672.72;4998919;28;20500;-82
2024/03/24 01:17:42;;;;;;;5.57;3.72;;;;;;;4.21;77.00;97675.09;4982097;28;20100;-81
2024/03/24 01:20:11;;;;;;;6.00;3.75;;;;;;;4.11;77.17;97651.13;4997275;28;20120;-83
2024/03/24 01:22:40;;;;;;;4.38;3.45;;;;;;;4.16;77.65;97664.44;4980920;28;20026;-82
2024/03/24 01:25:06;;;;;;;4.45;3.15;;;;;;;4.09;77.92;97655.84;4990555;28;20056;-82
2024/03/24 01:27:32;;;;;;;5.63;4.35;;;;;;;4.02;77.69;97637.53;5015829;28;20028;-83
2024/03/24 01:29:57;;;;;;;4.63;4.15;;;;;;;4.08;78.13;97663.00;4982050;28;20034;-82
2024/03/24 01:32:23;;;;;;;6.82;4.00;;;;;;;4.23;77.18;97652.72;4980537;28;20433;-81
2024/03/24 01:34:48;;;;;;;9.05;3.83;;;;;;;4.23;77.36;97628.13;4977675;28;20068;-82
2024/03/24 01:37:13;;;;;;;8.15;4.40;;;;;;;4.34;76.41;97653.69;4992622;28;20038;-83
2024/03/24 01:39:43;;;;;;;5.85;4.32;;;;;;;3.98;76.78;97607.34;4964552;28;20030;-82
2024/03/24 01:42:08;;;;;;;4.97;3.80;;;;;;;3.77;77.84;97626.50;4993921;28;20024;-82
2024/03/24 01:44:33;;;;;;;6.50;4.13;;;;;;;3.90;77.72;97625.41;4995834;28;20026;-81
2024/03/24 01:46:59;;;;;;;5.68;4.30;;;;;;;4.04;76.88;97603.75;4994615;28;20040;-81
2024/03/24 01:49:24;;;;;;;12.40;3.80;;;;;;;4.18;77.13;97638.59;4982775;28;20539;-82
2024/03/24 01:51:49;;;;;;;7.65;3.85;;;;;;;4.07;76.85;97623.59;4983129;28;20038;-82
2024/03/24 01:54:15;;;;;;;6.50;3.70;;;;;;;4.07;77.13;97627.06;4984149;28;20095;-81
2024/03/24 01:56:41;;;;;;;8.27;4.30;;;;;;;4.07;77.49;97618.34;4991723;28;20044;-81
2024/03/24 01:59:06;;;;;;;7.47;4.38;;;;;;;3.93;77.80;97609.91;5009583;28;20032;-82
2024/03/24 02:01:32;;;;;;;4.75;4.30;;;;;;;3.94;77.82;97616.78;4994651;28;20021;-81
2024/03/24 02:03:58;;;;;;;8.85;4.10;;;;;;;3.87;77.63;97591.59;5013216;28;20021;-81
2024/03/24 02:06:23;;;;;;;4.30;3.55;;;;;;;3.97;78.31;97604.97;4993705;28;20080;-82
2024/03/24 02:08:49;;;;;;;5.00;4.50;;;;;;;4.02;77.76;97605.06;4994381;28;20483;-83
2024/03/24 02:11:14;;;;;;;6.13;4.28;;;;;;;3.91;77.75;97569.75;4979511;28;20033;-82
2024/03/24 02:13:40;;;;;;;6.50;4.05;;;;;;;3.92;77.84;97587.19;4996447;28;20087;-81
2024/03/24 02:16:05;;;;;;;4.03;3.72;;;;;;;3.89;78.26;97585.00;5011854;28;20025;-82
2024/03/24 02:18:31;;;;;;;4.53;4.13;;;;;;;3.99;78.37;97600.25;4994400;28;20060;-83
2024/03/24 02:20:56;;;;;;;4.13;3.78;;;;;;;4.07;78.19;97586.66;4982441;28;20041;-82
2024/03/24 02:23:22;;;;;;;4.10;3.67;;;;;;;4.12;78.03;97592.03;4980565;28;20034;-82
2024/03/24 02:25:47;;;;;;;4.95;3.70;;;;;;;3.85;78.61;97578.63;4997098;28;20030;-81
2024/03/24 02:28:13;;;;;;;9.02;4.05;;;;;;;4.07;78.83;97581.38;4978612;28;20507;-82
2024/03/24 02:30:38;;;;;;;5.63;3.30;;;;;;;3.76;77.69;97528.06;4994623;28;20588;-82
2024/03/24 02:33:04;;;;;;;4.68;3.53;;;;;;;3.94;78.34;97561.34;4993268;28;20046;-83
2024/03/24 02:35:30;;;;;;;4.53;4.10;;;;;;;3.84;78.65;97557.75;4979536;28;20030;-83
2024/03/24 02:37:55;;;;;;;6.93;4.18;;;;;;;4.14;78.54;97579.38;4977712;28;20038;-82
2024/03/24 02:40:20;;;;;;;4.85;3.50;;;;;;;3.99;78.29;97536.91;4980740;28;20107;-82
2024/03/24 02:42:46;;;;;;;5.65;3.55;;;;;;;3.95;78.44;97549.78;4994898;28;20061;-81
2024/03/24 02:45:12;;;;;;;5.10;3.65;;;;;;;3.84;78.92;97557.75;4994681;28;20061;-82
2024/03/24 02:47:38;;;;;;;4.05;3.65;;;;;;;3.80;78.80;97538.94;5010208;28;20574;-82
2024/03/24 02:50:05;;;;;;;4.88;3.55;;;;;;;3.78;78.48;97533.09;4977758;28;20056;-82
2024/03/24 02:52:31;;;;;;;4.93;3.95;;;;;;;4.00;77.59;97531.38;4996340;28;20072;-81
2024/03/24 02:54:56;;;;;;;4.85;3.92;;;;;;;3.78;77.65;97527.81;4996449;28;20021;-82
2024/03/24 02:57:22;;;;;;;5.40;3.95;;;;;;;3.67;78.75;97516.28;4992145;28;20040;-82
2024/03/24 02:59:47;;;;;;;7.40;3.40;;;;;;;4.05;78.47;97554.41;4963197;28;20056;-83
2024/03/24 03:02:12;;;;;;;5.57;3.80;;;;;;;3.94;78.40;97520.97;4982108;28;20048;-82
2024/03/24 03:04:38;;;;;;;7.10;3.70;;;;;;;3.84;78.23;97518.16;4982164;28;20041;-82
2024/03/24 03:07:03;;;;;;;6.85;3.65;;;;;;;3.95;78.47;97528.66;4996624;28;20038;-82
2024/03/24 03:09:29;;;;;;;6.97;4.72;;;;;;;3.93;78.87;97543.94;5015414;28;20041;-81
2024/03/24 03:11:55;;;;;;;5.90;3.35;;;;;;;3.94;78.01;97548.16;4998234;28;20060;-83
2024/03/24 03:14:20;;;;;;;5.45;3.65;;;;;;;4.05;78.57;97523.53;5015115;28;20025;-82
2024/03/24 03:16:46;;;;;;;5.07;4.30;;;;;;;4.02;78.55;97529.28;5010525;28;20030;-82
2024/03/24 03:19:11;;;;;;;5.53;3.50;;;;;;;4.04;78.21;97514.00;4998791;28;20088;-81
2024/03/24 03:21:37;;;;;;;3.80;3.22;;;;;;;3.91;78.50;97490.56;5016690;28;20076;-82
2024/03/24 03:24:03;;;;;;;4.32;3.88;;;;;;;4.20;77.88;97523.78;4996934;28;20034;-82
2024/03/24 03:26:29;;;;;;;4.63;3.85;;;;;;;3.93;78.80;97516.75;4995252;28;20041;-82
2024/03/24 03:28:54;;;;;;;9.00;4.00;;;;;;;3.97;78.27;97507.28;5013551;28;20038;-83
2024/03/24 03:31:20;;;;;;;8.27;4.55;;;;;;;3.75;78.63;97489.53;4966375;28;20103;-83
2024/03/24 03:33:45;;;;;;;3.58;3.28;;;;;;;3.73;78.92;97504.00;4984303;28;20426;-84
2024/03/24 03:36:11;;;;;;;3.88;3.42;;;;;;;3.75;79.95;97501.91;4983064;28;20036;-82
2024/03/24 03:38:36;;;;;;;5.75;3.40;;;;;;;3.70;79.54;97492.06;4981210;28;20559;-81
2024/03/24 03:41:02;;;;;;;6.28;3.22;;;;;;;3.79;79.22;97476.66;4999029;28;20040;-84
2024/03/24 03:43:28;;;;;;;6.05;3.13;;;;;;;3.77;79.16;97474.25;5016091;28;20037;-83
2024/03/24 03:45:53;;;;;;;7.07;3.50;;;;;;;3.84;79.61;97499.69;4997645;28;20069;-83
2024/03/24 03:48:18;;;;;;;5.20;3.53;;;;;;;3.80;80.01;97494.06;5012383;28;20030;-82
2024/03/24 03:50:45;;;;;;;6.10;3.85;;;;;;;3.73;79.98;97467.06;4980267;28;20037;-83
2024/03/24 03:53:17;;;;;;;3.80;3.10;;;;;;;3.94;79.44;97491.94;4983207;28;20030;-82
2024/03/24 03:55:47;;;;;;;8.07;4.00;;;;;;;3.59;79.18;97448.09;4983506;28;20030;-84
2024/03/24 03:58:13;;;;;;;4.07;3.50;;;;;;;3.68;79.99;97472.25;4981402;28;20444;-83
2024/03/24 04:00:38;;;;;;;4.75;3.28;;;;;;;3.84;79.83;97468.03;4982687;28;20050;-83
2024/03/24 04:03:04;;;;;;;5.47;3.53;;;;;;;3.78;80.02;97444.19;4995992;28;20132;-84
2024/03/24 04:05:29;;;;;;;4.18;3.45;;;;;;;3.70;80.58;97438.50;5013931;28;20026;-81
2024/03/24 04:07:54;;;;;;;10.15;3.53;;;;;;;3.80;80.27;97442.09;4966459;28;20121;-83
2024/03/24 04:10:20;;;;;;;4.25;3.60;;;;;;;3.74;80.07;97429.88;4982460;28;20029;-82
2024/03/24 04:12:45;;;;;;;8.65;3.58;;;;;;;3.83;79.83;97455.84;4997515;28;20038;-83
2024/03/24 04:15:10;;;;;;;5.47;3.47;;;;;;;3.70;80.35;97435.88;4983329;28;20026;-82
2024/03/24 04:17:37;;;;;;;8.07;3.78;;;;;;;3.70;79.99;97427.94;4996176;28;20513;-83
2024/03/24 04:20:07;;;;;;;3.92;3.63;;;;;;;3.49;80.41;97424.19;4982513;28;20022;-84
2024/03/24 04:22:33;;;;;;;4.38;3.38;;;;;;;3.46;80.04;97402.75;4999103;28;20089;-83
2024/03/24 04:24:58;;;;;;;4.80;3.95;;;;;;;3.67;80.48;97437.13;4998954;28;20060;-83
2024/03/24 04:27:24;;;;;;;4.43;3.45;;;;;;;3.78;80.61;97438.09;5013119;28;20038;-83
2024/03/24 04:29:49;;;;;;;4.65;3.50;;;;;;;3.46;80.99;97411.47;4998229;28;20034;-83
2024/03/24 04:32:15;;;;;;;5.18;4.22;;;;;;;3.68;80.45;97427.38;4980587;28;20062;-82
2024/03/24 04:34:40;;;;;;;8.05;4.00;;;;;;;3.75;80.61;97410.38;4996896;28;20075;-81
2024/03/24 04:37:06;;;;;;;3.65;3.35;;;;;;;3.70;80.04;97391.81;4963071;28;20490;-83
2024/03/24 04:39:32;;;;;;;3.63;3.05;;;;;;;3.85;80.11;97422.91;4980508;28;20044;-82
2024/03/24 04:41:58;;;;;;;8.95;4.88;;;;;;;3.76;79.59;97403.25;4995822;28;20041;-83
2024/03/24 04:44:23;;;;;;;5.60;3.63;;;;;;;3.88;79.75;97419.81;5011058;28;20026;-83
2024/03/24 04:46:49;;;;;;;7.47;3.92;;;;;;;3.64;79.91;97400.69;4995186;28;20081;-82
2024/03/24 04:49:15;;;;;;;9.10;3.83;;;;;;;3.80;79.64;97404.34;4994844;28;20417;-83
2024/03/24 04:51:40;;;;;;;8.60;3.90;;;;;;;3.87;80.02;97418.19;4997014;28;20117;-84
2024/03/24 04:54:06;;;;;;;5.95;4.40;;;;;;;3.66;79.78;97397.81;4997876;28;20028;-82
2024/03/24 04:56:32;;;;;;;6.68;4.20;;;;;;;3.66;79.64;97403.91;5000546;28;20032;-84
2024/03/24 04:58:58;;;;;;;8.55;3.85;;;;;;;3.59;80.02;97376.06;4995574;28;20148;-83
2024/03/24 05:01:23;;;;;;;8.90;3.80;;;;;;;3.87;79.53;97399.72;4980882;28;20037;-84
2024/03/24 05:03:49;;;;;;;8.13;4.13;;;;;;;3.91;79.18;97406.09;4981191;28;20068;-83
2024/03/24 05:06:14;;;;;;;4.38;3.53;;;;;;;3.67;79.38;97371.19;4997059;28;20036;-83
2024/03/24 05:08:40;;;;;;;7.05;3.60;;;;;;;3.78;80.16;97399.31;4963253;28;22327;-83
2024/03/24 05:11:11;;;;;;;5.10;4.40;;;;;;;3.76;79.89;97387.41;4980467;28;20036;-83
2024/03/24 05:13:38;;;;;;;5.28;3.85;;;;;;;3.97;79.61;97399.88;4964659;28;20394;-82
2024/03/24 05:16:07;;;;;;;8.20;3.72;;;;;;;3.85;80.40;97393.06;4995474;28;20029;-83
2024/03/24 05:18:34;;;;;;;8.88;4.32;;;;;;;3.67;79.31;97378.28;4992004;28;20062;-83
2024/03/24 05:20:59;;;;;;;7.60;3.67;;;;;;;3.84;80.31;97404.69;4977394;28;20029;-83
2024/03/24 05:23:24;;;;;;;7.03;4.43;;;;;;;3.74;80.03;97378.94;4977940;28;20052;-83
2024/03/24 05:25:54;;;;;;;6.18;3.85;;;;;;;3.93;79.55;97398.78;5010388;28;20034;-82
2024/03/24 05:28:20;;;;;;;7.40;4.90;;;;;;;3.78;80.50;97391.41;5012148;28;20030;-83
2024/03/24 05:30:46;;;;;;;8.77;4.82;;;;;;;3.85;79.61;97403.63;4997947;28;20052;-83
2024/03/24 05:33:12;;;;;;;6.70;4.15;;;;;;;3.92;80.45;97404.28;4996838;28;20030;-82
2024/03/24 05:35:37;;;;;;;5.82;3.67;;;;;;;3.64;81.10;97373.50;5014957;28;20476;-85
2024/03/24 05:38:03;;;;;;;6.38;4.22;;;;;;;3.94;81.16;97408.28;4966496;28;20032;-85
2024/03/24 05:40:28;;;;;;;9.57;4.38;;;;;;;3.76;81.23;97392.69;5000506;28;20038;-84
2024/03/24 05:42:54;;;;;;;9.27;4.18;;;;;;;3.64;81.64;97368.25;4981981;28;20037;-84
2024/03/24 05:45:20;;;;;;;9.68;4.28;;;;;;;3.73;81.76;97401.09;4961583;28;20037;-84
2024/03/24 05:47:45;;;;;;;8.73;4.43;;;;;;;3.68;82.34;97374.63;4997643;28;20033;-84
2024/03/24 05:50:11;;;;;;;8.40;4.25;;;;;;;3.68;82.24;97378.06;4996488;28;20040;-84
2024/03/24 05:52:37;;;;;;;8.60;4.05;;;;;;;3.76;82.45;97379.50;4998052;28;20048;-84
2024/03/24 05:55:06;;;;;;;7.25;5.20;;;;;;;3.56;82.88;97355.47;5010650;28;20093;-83
2024/03/24 05:57:32;;;;;;;10.90;4.57;;;;;;;3.53;83.75;97383.09;4979655;28;20521;-82
2024/03/24 05:59:57;;;;;;;5.03;3.60;;;;;;;3.63;83.22;97356.88;5008304;28;20038;-84
2024/03/24 06:02:23;;;;;;;7.57;3.92;;;;;;;3.89;82.43;97367.81;4995698;28;20037;-83
2024/03/24 06:04:48;;;;;;;7.85;4.05;;;;;;;3.64;82.67;97347.13;4964795;28;20029;-84
2024/03/24 06:07:13;;;;;;;5.40;3.88;;;;;;;3.77;83.15;97368.72;4978929;28;20064;-84
2024/03/24 06:09:39;;;;;;;7.68;4.70;;;;;;;3.94;83.02;97381.06;4981952;28;20037;-83
2024/03/24 06:12:05;;;;;;;9.63;4.70;;;;;;;3.87;82.08;97354.84;4995246;28;20042;-82
2024/03/24 06:14:31;;;;;;;6.05;4.10;;;;;;;3.77;82.66;97386.38;4997022;28;20081;-84
2024/03/24 06:16:56;;;;;;;7.28;4.82;;;;;;;3.73;83.45;97369.44;4996872;28;20026;-83
2024/03/24 06:19:22;;;;;;;6.45;3.90;;;;;;;3.87;82.95;97377.81;4996603;28;20041;-84
2024/03/24 06:21:49;;;;;;;12.95;5.20;;;;;;;3.65;82.72;97344.25;4983034;28;20034;-83
2024/03/24 06:24:14;;;;;;;9.30;3.65;;;;;;;3.90;82.96;97385.25;4996601;28;20113;-83
2024/03/24 06:26:40;;;;;;;9.45;4.43;;;;;;;3.82;83.39;97367.19;4982895;28;20548;-84
2024/03/24 06:29:05;;;;;;;9.02;3.95;;;;;;;3.89;83.17;97389.72;5017042;28;20030;-83
2024/03/24 06:31:31;;;;;;;4.60;3.17;;;;;;;3.92;83.11;97389.25;4969599;28;20041;-85
2024/03/24 06:33:57;;;;;;;4.93;3.75;;;;;;;3.95;83.07;97383.50;4980397;28;20038;-84
2024/03/24 06:36:24;;;;;;;4.45;3.47;;;;;;;3.77;83.08;97366.06;5013756;28;20064;-84
2024/03/24 06:38:49;;;;;;;5.15;4.00;;;;;;;3.72;83.10;97342.25;4965830;28;20041;-83
2024/03/24 06:41:15;;;;;;;8.55;4.28;;;;;;;4.08;82.75;97380.50;4998873;28;20038;-84
2024/03/24 06:43:43;;;;;;;4.30;3.55;;;;;;;3.70;83.63;97369.91;4998235;28;20101;-83
2024/03/24 06:46:09;;;;;;;8.63;4.20;;;;;;;3.84;83.73;97363.28;4965184;28;20075;-83
2024/03/24 06:48:34;;;;;;;4.03;3.40;;;;;;;3.98;83.72;97380.34;4997281;28;20486;-83
2024/03/24 06:51:00;;;;;;;6.93;3.47;;;;;;;3.76;84.30;97339.91;4997693;28;20045;-83
2024/03/24 06:53:26;;;;;;;5.50;3.33;;;;;;;4.06;82.86;97356.19;4998577;28;20040;-83
2024/03/24 06:55:51;;;;;;;5.78;3.58;;;;;;;3.86;83.00;97329.53;5002120;28;20164;-83
2024/03/24 06:58:17;;;;;;;5.97;4.13;;;;;;;4.07;82.96;97357.78;4990784;28;20065;-84
2024/03/24 07:00:46;;;;;;;8.57;3.45;;;;;;;4.13;83.43;97350.75;4997527;28;20026;-83
2024/03/24 07:03:11;;;;;;;7.45;3.97;;;;;;;4.01;82.43;97319.16;4993142;28;20061;-84
2024/03/24 07:05:37;;;;;;;5.57;3.50;;;;;;;4.13;82.90;97332.28;5012243;28;21801;-84
2024/03/24 07:08:02;;;;;;;13.77;4.50;;;;;;;4.19;82.84;97350.56;4995375;28;20613;-85
2024/03/24 07:10:28;;;;;;;3.83;3.40;;;;;;;3.95;82.79;97317.50;4993443;28;20034;-85
2024/03/24 07:12:53;;;;;;;9.98;3.55;;;;;;;4.09;83.42;97346.97;4980884;28;20048;-85
2024/03/24 07:15:19;;;;;;;8.52;3.53;;;;;;;4.00;83.79;97322.84;4978498;28;20355;-84
2024/03/24 07:17:44;;;;;;;6.30;3.58;;;;;;;4.09;83.34;97334.56;5013063;28;20078;-85
2024/03/24 07:20:10;;;;;;;4.80;3.25;;;;;;;4.15;83.61;97349.44;4999719;28;20386;-85
2024/03/24 07:22:36;;;;;;;4.90;3.35;;;;;;;4.21;83.70;97343.19;4977983;28;20030;-83
2024/03/24 07:25:01;;;;;;;4.47;3.10;;;;;;;4.08;83.43;97340.91;4974682;28;20030;-85
2024/03/24 07:27:26;;;;;;;4.30;3.08;;;;;;;4.01;83.79;97347.41;4961624;28;20057;-84
2024/03/24 07:29:52;;;;;;;4.43;2.72;;;;;;;4.03;83.60;97346.13;4993156;28;20030;-84
2024/03/24 07:32:17;;;;;;;4.22;2.90;;;;;;;3.89;84.44;97326.38;4993493;28;20106;-84
2024/03/24 07:34:44;;;;;;;6.53;3.03;;;;;;;3.99;84.50;97352.94;4962017;28;20112;-84
2024/03/24 07:37:09;;;;;;;3.28;2.97;;;;;;;3.50;85.64;97304.44;4981104;28;20091;-83
2024/03/24 07:39:35;;;;;;;5.10;2.75;;;;;;;3.77;85.08;97326.50;4972602;28;20125;-84
2024/03/24 07:42:00;;;;;;;6.22;3.67;;;;;;;4.04;84.79;97346.91;5002424;28;20038;-85
2024/03/24 07:44:25;;;;;;;7.30;3.13;;;;;;;4.01;84.55;97342.94;5006213;28;20030;-85
2024/03/24 07:46:51;;;;;;;4.22;2.90;;;;;;;4.03;84.77;97343.47;5000997;28;20026;-84
2024/03/24 07:49:16;;;;;;;5.82;2.75;;;;;;;3.92;84.88;97320.63;4988612;28;20030;-85
2024/03/24 07:51:42;;;;;;;4.25;2.78;;;;;;;4.06;84.82;97339.56;4993878;28;20029;-85
2024/03/24 07:54:07;;;;;;;5.40;2.83;;;;;;;4.03;84.61;97340.84;4992095;28;20033;-83
2024/03/24 07:56:33;;;;;;;6.97;3.05;;;;;;;3.96;84.56;97310.38;4980013;28;20037;-83
2024/03/24 07:58:59;;;;;;;4.07;2.72;;;;;;;4.26;84.72;97334.56;4998256;28;20048;-83
2024/03/24 08:01:25;;;;;;;8.55;2.08;;;;;;;4.11;84.56;97336.97;4979943;28;20451;-83
2024/03/24 08:03:51;;;;;;;4.30;2.65;;;;;;;3.97;84.73;97315.44;5013420;28;20489;-84
2024/03/24 08:06:17;;;;;;;5.20;2.80;;;;;;;4.20;84.37;97324.94;4979078;28;20037;-85
2024/03/24 08:08:42;;;;;;;5.50;2.70;;;;;;;4.18;83.96;97314.63;4996593;28;20494;-84
2024/03/24 08:11:08;;;;;;;2.88;2.63;;;;;;;4.30;84.54;97323.22;4981033;28;20026;-84
2024/03/24 08:13:34;;;;;;;6.03;2.53;;;;;;;4.24;85.01;97316.28;4984480;28;20481;-83
2024/03/24 08:16:00;;;;;;;3.30;2.53;;;;;;;4.31;84.27;97332.75;4999056;28;20040;-83
2024/03/24 08:18:25;;;;;;;2.92;2.20;;;;;;;4.40;84.69;97326.00;4996888;28;20124;-83
2024/03/24 08:20:51;;;;;;;2.72;2.30;;;;;;;4.42;84.46;97331.03;5001741;28;20053;-83
2024/03/24 08:23:16;;;;;;;2.92;2.03;;;;;;;4.21;84.45;97294.88;4980367;28;20034;-83
2024/03/24 08:25:42;;;;;;;5.38;2.58;;;;;;;4.37;84.91;97318.56;4997003;28;20032;-83
2024/03/24 08:28:08;;;;;;;3.33;2.00;;;;;;;4.49;84.53;97337.75;5013129;28;20531;-83
2024/03/24 08:30:33;;;;;;;3.25;2.22;;;;;;;4.46;84.94;97335.56;5013153;28;20595;-83
2024/03/24 08:32:59;;;;;;;5.75;2.58;;;;;;;4.52;84.80;97328.53;4995123;28;20164;-82
2024/03/24 08:35:24;;;;;;;2.50;2.30;;;;;;;4.47;84.05;97300.22;5015039;28;20041;-84
2024/03/24 08:37:51;;;;;;;1.88;1.77;;;;;;;4.51;84.47;97327.72;4973988;28;20030;-83
2024/03/24 08:40:16;;;;;;;2.22;2.03;;;;;;;4.64;84.80;97344.22;4957858;28;20030;-83
2024/03/24 08:42:42;;;;;;;3.45;2.60;;;;;;;4.43;85.22;97316.78;5012644;28;20025;-83
2024/03/24 08:45:08;;;;;;;2.67;2.28;;;;;;;4.61;84.23;97323.59;4978572;28;20029;-83
2024/03/24 08:47:34;;;;;;;3.47;1.75;;;;;;;4.59;84.28;97313.25;4963558;28;20033;-83
2024/03/24 08:49:59;;;;;;;2.35;2.15;;;;;;;4.41;85.37;97324.94;4976412;28;20042;-83
2024/03/24 08:52:25;;;;;;;2.25;1.50;;;;;;;4.56;84.34;97311.91;4994866;28;20505;-84
2024/03/24 08:54:50;;;;;;;2.42;2.03;;;;;;;4.64;85.02;97333.66;4970137;28;20041;-85
2024/03/24 08:57:16;;;;;;;2.67;2.17;;;;;;;4.78;85.11;97353.38;4969482;28;20053;-83
2024/03/24 08:59:41;;;;;;;3.63;2.20;;;;;;;4.61;85.48;97337.59;4969663;28;20085;-83
2024/03/24 09:02:08;;;;;;;7.55;4.00;;;;;;;4.86;84.71;97350.28;4974880;28;20033;-84
2024/03/24 09:04:33;;;;;;;6.35;2.20;;;;;;;4.97;84.77;97357.28;4976728;28;20632;-83
2024/03/24 09:06:59;;;;;;;4.85;2.30;;;;;;;4.95;85.23;97372.59;4997021;28;20036;-84
2024/03/24 09:09:24;;;;;;;4.03;2.60;;;;;;;4.88;84.47;97350.84;4990582;28;20045;-83
2024/03/24 09:11:49;;;;;;;3.05;2.63;;;;;;;5.00;85.12;97370.78;5025412;28;20053;-83
2024/03/24 09:14:15;;;;;;;3.08;2.60;;;;;;;4.67;85.43;97317.31;4992817;28;20077;-83
2024/03/24 09:16:40;;;;;;;3.17;2.58;;;;;;;4.88;84.71;97353.47;4989907;28;20431;-82
2024/03/24 09:19:06;;;;;;;3.15;2.50;;;;;;;4.90;84.48;97330.25;4983694;28;20038;-82
2024/03/24 09:21:31;;;;;;;3.35;2.95;;;;;;;4.99;84.69;97345.41;4990690;28;20037;-82
2024/03/24 09:23:56;;;;;;;3.20;2.83;;;;;;;4.92;83.48;97323.66;4990353;28;20045;-82
2024/03/24 09:26:24;;;;;;;6.30;3.83;;;;;;;5.07;83.88;97333.56;5005408;28;20026;-83
2024/03/24 09:28:49;;;;;;;18.48;9.70;;;;;;;4.97;84.24;97333.50;4974951;28;20034;-83
2024/03/24 09:31:14;;;;;;;23.55;9.70;;;;;;;4.92;84.44;97336.06;4976223;28;20044;-82
2024/03/24 09:33:40;;;;;;;19.50;9.02;;;;;;;4.89;84.12;97349.81;5005511;28;20034;-82
2024/03/24 09:36:05;;;;;;;8.10;4.82;;;;;;;5.13;84.12;97367.75;4980699;28;20045;-84
2024/03/24 09:38:31;;;;;;;14.70;4.70;;;;;;;4.87;83.98;97351.91;4997066;28;20037;-81
2024/03/24 09:40:56;;;;;;;22.50;3.33;;;;;;;5.02;84.23;97381.91;4968157;28;20145;-85
2024/03/24 09:43:22;;;;;;;11.27;3.33;;;;;;;4.63;83.92;97313.59;4983175;28;20072;-85
2024/03/24 09:45:48;;;;;;;5.68;3.05;;;;;;;4.47;84.15;97312.59;4984620;28;20036;-84
2024/03/24 09:48:16;;;;;;;4.47;3.00;;;;;;;4.66;83.91;97318.34;5010745;28;20050;-85
2024/03/24 09:50:42;;;;;;;3.60;3.35;;;;;;;4.40;84.74;97296.94;5006225;28;20071;-84
2024/03/24 09:53:09;;;;;;;2.53;2.28;;;;;;;4.87;84.45;97368.53;5024136;28;20026;-84
2024/03/24 09:55:35;;;;;;;2.60;2.08;;;;;;;4.70;83.89;97306.22;5021080;28;20025;-84
2024/03/24 09:58:00;;;;;;;5.43;2.20;;;;;;;4.88;82.99;97306.72;5008495;28;20034;-85
2024/03/24 10:00:26;;;;;;;11.20;3.63;;;;;;;5.07;84.39;97354.72;5004717;28;20441;-86
2024/03/24 10:02:52;;;;;;;3.10;2.78;;;;;;;5.12;85.03;97375.94;5001415;28;20030;-84
2024/03/24 10:05:18;;;;;;;2.47;2.20;;;;;;;4.95;85.17;97383.97;5003678;28;20021;-84
2024/03/24 10:07:44;;;;;;;4.88;3.70;;;;;;;5.09;84.99;97384.34;5003640;28;20117;-84
2024/03/24 10:10:10;;;;;;;16.17;8.43;;;;;;;5.23;83.59;97367.88;4995305;28;20041;-84
2024/03/24 10:12:36;;;;;;;3.50;3.20;;;;;;;5.27;83.79;97354.94;5010664;28;20076;-84
2024/03/24 10:15:29;;;;;;;4.78;3.88;;;;;;;5.65;82.41;97378.56;5016664;28;20022;-84
2024/03/24 10:18:04;;;;;;;2.70;2.50;;;;;;;5.60;82.05;97346.75;4997828;28;20076;-84
2024/03/24 10:20:30;;;;;;;4.82;3.15;;;;;;;5.84;82.25;97379.78;4989875;28;20034;-84
2024/03/24 10:22:57;;;;;;;7.07;4.43;;;;;;;5.64;81.56;97357.63;5012676;28;20030;-84
2024/03/24 10:25:25;;;;;;;2.13;1.92;;;;;;;5.90;82.53;97385.91;4976291;28;20083;-84
2024/03/24 10:27:51;;;;;;;2.53;2.33;;;;;;;5.89;82.17;97374.53;4998602;28;20145;-84
2024/03/24 10:30:17;;;;;;;2.67;2.25;;;;;;;6.05;82.49;97381.50;4993710;28;20442;-83
2024/03/24 10:32:42;;;;;;;1.80;1.67;;;;;;;6.08;82.87;97353.72;5016319;28;20117;-84
2024/03/24 10:35:09;;;;;;;2.20;1.70;;;;;;;5.81;81.92;97332.59;4991682;28;20025;-84
2024/03/24 10:37:35;;;;;;;2.30;2.10;;;;;;;5.97;82.36;97360.00;4978005;28;20474;-83
2024/03/24 10:40:02;;;;;;;4.13;2.75;;;;;;;5.94;82.27;97368.47;4979200;28;20401;-84
2024/03/24 10:42:33;;;;;;;1.75;1.52;;;;;;;5.88;82.12;97359.69;4994964;28;20568;-84
2024/03/24 10:45:03;;;;;;;2.75;2.33;;;;;;;5.79;82.50;97381.53;4989816;28;20486;-82
2024/03/24 10:47:32;;;;;;;5.85;2.38;;;;;;;5.80;82.14;97360.13;5000230;28;20060;-84
2024/03/24 10:49:58;;;;;;;2.42;2.05;;;;;;;5.20;81.50;97306.72;5015432;28;20057;-85
2024/03/24 10:52:29;;;;;;;5.50;2.75;;;;;;;5.32;81.37;97320.59;4991246;28;20030;-83
2024/03/24 10:54:56;;;;;;;13.13;3.28;;;;;;;5.14;79.36;97297.16;4984052;28;20040;-82
2024/03/24 10:57:26;;;;;;;5.75;2.72;;;;;;;5.76;78.96;97351.09;4988458;28;20014;-82
2024/03/24 10:59:53;;;;;;;6.47;2.25;;;;;;;6.04;78.86;97365.88;4995702;28;20038;-81
2024/03/24 11:02:20;;;;;;;4.38;2.75;;;;;;;5.86;79.38;97324.72;4980197;28;20026;-83
2024/03/24 11:04:47;;;;;;;9.73;2.67;;;;;;;6.09;79.63;97357.97;4997616;28;20061;-82
2024/03/24 11:07:14;;;;;;;5.85;2.38;;;;;;;6.07;79.44;97337.03;4981590;28;20076;-82
2024/03/24 11:09:40;;;;;;;4.03;2.28;;;;;;;5.97;79.36;97318.44;4992866;28;20097;-82
2024/03/24 11:12:07;;;;;;;6.30;2.03;;;;;;;6.10;80.07;97341.00;4965298;28;20125;-83
2024/03/24 11:14:33;;;;;;;2.72;2.50;;;;;;;5.98;79.83;97327.97;4989728;28;20494;-83
2024/03/24 11:16:59;;;;;;;3.03;2.22;;;;;;;6.28;79.58;97361.78;4964794;28;20022;-83
2024/03/24 11:19:26;;;;;;;6.63;2.47;;;;;;;5.66;81.10;97297.28;5006588;28;20049;-83
2024/03/24 11:21:52;;;;;;;4.05;2.55;;;;;;;6.12;80.82;97359.28;5013769;28;20025;-82
2024/03/24 11:24:28;;;;;;;4.20;3.05;;;;;;;5.60;81.58;97259.41;4975648;28;20030;-83
2024/03/24 11:26:57;;;;;;;7.15;3.60;;;;;;;6.24;81.50;97336.88;5000497;28;20477;-82
2024/03/24 11:29:44;;;;;;;4.80;3.20;;;;;;;6.41;81.87;97363.97;4998224;28;20516;-84
2024/03/24 11:32:15;;;;;;;9.05;2.97;;;;;;;6.37;81.57;97340.88;4992986;28;20026;-82
2024/03/24 11:34:55;;;;;;;3.28;2.97;;;;;;;6.53;81.05;97353.94;4974252;28;20033;-82